sensor_id;sensor_type;location;lat;lon;timestamp;temperature;humidity
46123;DHT22;31856;-35.404;149.120;2023-09-18T00:02:18;20.10;40.90
46123;DHT22;31856;-35.404;149.120;2023-09-18T00:04:47;20.20;40.90
46123;DHT22;31856;-35.404;149.120;2023-09-18T00:07:18;20.30;40.70
46123;DHT22;31856;-35.404;149.120;2023-09-18T00:09:47;20.40;40.50
46123;DHT22;31856;-35.404;149.120;2023-09-18T00:12:18;20.50;40.30
46123;DHT22;31856;-35.404;149.120;2023-09-18T00:14:48;20.80;39.80
46123;DHT22;31856;-35.404;149.120;2023-09-18T00:17:18;20.90;40.50
46123;DHT22;31856;-35.404;149.120;2023-09-18T00:19:47;21.10;39.50
46123;DHT22;31856;-35.404;149.120;2023-09-18T00:22:17;21.20;38.70
46123;DHT22;31856;-35.404;149.120;2023-09-18T00:24:47;21.30;39.50
46123;DHT22;31856;-35.404;149.120;2023-09-18T00:27:17;21.50;39.10
46123;DHT22;31856;-35.404;149.120;2023-09-18T00:29:47;21.60;38.20
46123;DHT22;31856;-35.404;149.120;2023-09-18T00:32:17;21.70;38.40
46123;DHT22;31856;-35.404;149.120;2023-09-18T00:34:47;21.80;37.90
46123;DHT22;31856;-35.404;149.120;2023-09-18T00:37:17;22.00;36.90
46123;DHT22;31856;-35.404;149.120;2023-09-18T00:39:49;22.10;36.60
46123;DHT22;31856;-35.404;149.120;2023-09-18T00:42:18;22.30;36.60
46123;DHT22;31856;-35.404;149.120;2023-09-18T00:44:50;22.40;36.40
46123;DHT22;31856;-35.404;149.120;2023-09-18T00:47:19;22.60;36.20
46123;DHT22;31856;-35.404;149.120;2023-09-18T00:49:49;22.70;36.30
46123;DHT22;31856;-35.404;149.120;2023-09-18T00:52:19;22.70;36.20
46123;DHT22;31856;-35.404;149.120;2023-09-18T00:54:49;22.90;36.30
46123;DHT22;31856;-35.404;149.120;2023-09-18T00:57:19;23.00;36.60
46123;DHT22;31856;-35.404;149.120;2023-09-18T00:59:49;23.20;35.30
46123;DHT22;31856;-35.404;149.120;2023-09-18T01:02:19;23.30;34.80
46123;DHT22;31856;-35.404;149.120;2023-09-18T01:04:50;23.40;34.80
46123;DHT22;31856;-35.404;149.120;2023-09-18T01:07:19;23.40;34.80
46123;DHT22;31856;-35.404;149.120;2023-09-18T01:09:49;23.50;35.40
46123;DHT22;31856;-35.404;149.120;2023-09-18T01:12:55;23.70;34.70
46123;DHT22;31856;-35.404;149.120;2023-09-18T01:15:23;23.80;34.80
46123;DHT22;31856;-35.404;149.120;2023-09-18T01:17:55;23.90;34.50
46123;DHT22;31856;-35.404;149.120;2023-09-18T05:42:45;28.00;24.40
46123;DHT22;31856;-35.404;149.120;2023-09-18T05:45:15;27.90;24.90
46123;DHT22;31856;-35.404;149.120;2023-09-18T05:47:45;27.90;25.00
46123;DHT22;31856;-35.404;149.120;2023-09-18T05:50:17;28.00;25.20
46123;DHT22;31856;-35.404;149.120;2023-09-18T05:52:47;28.00;25.10
46123;DHT22;31856;-35.404;149.120;2023-09-18T05:55:20;27.90;24.80
46123;DHT22;31856;-35.404;149.120;2023-09-18T05:57:49;27.90;25.30
46123;DHT22;31856;-35.404;149.120;2023-09-18T06:00:20;27.80;25.70
46123;DHT22;31856;-35.404;149.120;2023-09-18T06:02:50;27.90;25.40
46123;DHT22;31856;-35.404;149.120;2023-09-18T06:05:20;27.80;25.40
46123;DHT22;31856;-35.404;149.120;2023-09-18T06:07:50;27.80;24.80
46123;DHT22;31856;-35.404;149.120;2023-09-18T06:10:20;27.70;25.20
46123;DHT22;31856;-35.404;149.120;2023-09-18T06:12:49;27.70;25.70
46123;DHT22;31856;-35.404;149.120;2023-09-18T06:15:19;27.70;26.00
46123;DHT22;31856;-35.404;149.120;2023-09-18T06:17:48;27.70;26.60
46123;DHT22;31856;-35.404;149.120;2023-09-18T06:20:18;27.70;27.30
46123;DHT22;31856;-35.404;149.120;2023-09-18T06:22:47;27.60;27.80
46123;DHT22;31856;-35.404;149.120;2023-09-18T06:25:17;27.60;27.30
46123;DHT22;31856;-35.404;149.120;2023-09-18T06:27:46;27.50;26.90
46123;DHT22;31856;-35.404;149.120;2023-09-18T06:30:16;27.50;26.60
46123;DHT22;31856;-35.404;149.120;2023-09-18T06:32:47;27.40;26.90
46123;DHT22;31856;-35.404;149.120;2023-09-18T06:35:16;27.30;27.40
46123;DHT22;31856;-35.404;149.120;2023-09-18T06:37:46;27.30;30.20
46123;DHT22;31856;-35.404;149.120;2023-09-18T10:34:35;19.20;49.20
46123;DHT22;31856;-35.404;149.120;2023-09-18T10:37:05;19.00;48.80
46123;DHT22;31856;-35.404;149.120;2023-09-18T10:39:37;19.10;49.10
46123;DHT22;31856;-35.404;149.120;2023-09-18T10:42:08;19.00;49.50
46123;DHT22;31856;-35.404;149.120;2023-09-18T10:44:38;19.00;49.40
46123;DHT22;31856;-35.404;149.120;2023-09-18T10:47:10;18.90;50.10
46123;DHT22;31856;-35.404;149.120;2023-09-18T10:49:41;18.90;49.80
46123;DHT22;31856;-35.404;149.120;2023-09-18T10:52:11;18.80;50.70
46123;DHT22;31856;-35.404;149.120;2023-09-18T10:54:41;18.80;50.90
46123;DHT22;31856;-35.404;149.120;2023-09-18T10:57:11;18.70;51.00
46123;DHT22;31856;-35.404;149.120;2023-09-18T10:59:45;18.70;51.20
46123;DHT22;31856;-35.404;149.120;2023-09-18T11:02:15;18.60;51.10
46123;DHT22;31856;-35.404;149.120;2023-09-18T11:04:50;18.50;51.50
46123;DHT22;31856;-35.404;149.120;2023-09-18T11:07:22;18.40;51.50
46123;DHT22;31856;-35.404;149.120;2023-09-18T11:09:54;18.40;51.70
46123;DHT22;31856;-35.404;149.120;2023-09-18T11:12:42;18.30;52.20
46123;DHT22;31856;-35.404;149.120;2023-09-18T11:15:25;18.20;52.40
46123;DHT22;31856;-35.404;149.120;2023-09-18T11:17:59;18.20;52.10
46123;DHT22;31856;-35.404;149.120;2023-09-18T11:20:29;18.10;52.00
46123;DHT22;31856;-35.404;149.120;2023-09-18T11:22:59;18.10;52.20
46123;DHT22;31856;-35.404;149.120;2023-09-18T11:25:42;18.00;52.90
46123;DHT22;31856;-35.404;149.120;2023-09-18T11:28:15;18.00;52.50
46123;DHT22;31856;-35.404;149.120;2023-09-18T11:30:50;18.00;52.80
46123;DHT22;31856;-35.404;149.120;2023-09-18T11:33:36;17.90;52.80
46123;DHT22;31856;-35.404;149.120;2023-09-18T11:36:08;17.90;52.30
46123;DHT22;31856;-35.404;149.120;2023-09-18T11:38:52;17.90;52.60
46123;DHT22;31856;-35.404;149.120;2023-09-18T11:41:32;17.80;53.20
46123;DHT22;31856;-35.404;149.120;2023-09-18T11:46:45;17.70;53.10
46123;DHT22;31856;-35.404;149.120;2023-09-18T11:49:19;17.60;53.20
46123;DHT22;31856;-35.404;149.120;2023-09-18T11:51:50;17.50;52.70
46123;DHT22;31856;-35.404;149.120;2023-09-18T11:54:21;17.50;53.00
46123;DHT22;31856;-35.404;149.120;2023-09-18T11:56:51;17.50;52.90
46123;DHT22;31856;-35.404;149.120;2023-09-18T11:59:34;17.50;53.00
46123;DHT22;31856;-35.404;149.120;2023-09-18T12:02:11;17.40;52.90
46123;DHT22;31856;-35.404;149.120;2023-09-18T12:04:49;17.30;52.60
46123;DHT22;31856;-35.404;149.120;2023-09-18T12:07:18;17.30;52.80
46123;DHT22;31856;-35.404;149.120;2023-09-18T12:09:48;17.30;53.00
46123;DHT22;31856;-35.404;149.120;2023-09-18T12:12:18;17.30;53.30
46123;DHT22;31856;-35.404;149.120;2023-09-18T12:14:47;17.20;53.50
46123;DHT22;31856;-35.404;149.120;2023-09-18T12:17:18;17.20;53.30
46123;DHT22;31856;-35.404;149.120;2023-09-18T12:19:52;17.10;53.50
46123;DHT22;31856;-35.404;149.120;2023-09-18T12:22:28;17.10;53.10
46123;DHT22;31856;-35.404;149.120;2023-09-18T12:25:12;17.00;53.80
46123;DHT22;31856;-35.404;149.120;2023-09-18T12:27:43;17.00;54.10
46123;DHT22;31856;-35.404;149.120;2023-09-18T12:46:31;16.80;54.80
46123;DHT22;31856;-35.404;149.120;2023-09-18T12:49:14;16.70;55.00
46123;DHT22;31856;-35.404;149.120;2023-09-18T12:51:53;16.70;55.10
46123;DHT22;31856;-35.404;149.120;2023-09-18T12:57:27;16.50;55.50
46123;DHT22;31856;-35.404;149.120;2023-09-18T12:59:57;16.50;55.50
46123;DHT22;31856;-35.404;149.120;2023-09-18T13:02:26;16.40;55.40
46123;DHT22;31856;-35.404;149.120;2023-09-18T13:04:56;16.40;55.60
46123;DHT22;31856;-35.404;149.120;2023-09-18T13:07:27;16.40;55.50
46123;DHT22;31856;-35.404;149.120;2023-09-18T13:10:02;16.40;55.00
46123;DHT22;31856;-35.404;149.120;2023-09-18T13:12:39;16.40;55.50
46123;DHT22;31856;-35.404;149.120;2023-09-18T13:15:10;16.30;56.00
46123;DHT22;31856;-35.404;149.120;2023-09-18T13:17:42;16.30;56.00
46123;DHT22;31856;-35.404;149.120;2023-09-18T13:20:15;16.30;56.10
46123;DHT22;31856;-35.404;149.120;2023-09-18T13:22:48;16.30;56.00
46123;DHT22;31856;-35.404;149.120;2023-09-18T13:25:22;16.20;56.20
46123;DHT22;31856;-35.404;149.120;2023-09-18T13:27:53;16.20;56.40
46123;DHT22;31856;-35.404;149.120;2023-09-18T13:30:22;16.10;56.50
46123;DHT22;31856;-35.404;149.120;2023-09-18T13:33:01;16.10;56.60
46123;DHT22;31856;-35.404;149.120;2023-09-18T13:35:31;16.00;56.70
46123;DHT22;31856;-35.404;149.120;2023-09-18T13:38:01;15.90;57.20
46123;DHT22;31856;-35.404;149.120;2023-09-18T13:40:35;15.80;57.30
46123;DHT22;31856;-35.404;149.120;2023-09-18T13:43:06;15.80;57.20
46123;DHT22;31856;-35.404;149.120;2023-09-18T16:15:12;14.30;59.00
46123;DHT22;31856;-35.404;149.120;2023-09-18T16:17:43;14.30;59.20
46123;DHT22;31856;-35.404;149.120;2023-09-18T16:20:12;14.30;59.90
46123;DHT22;31856;-35.404;149.120;2023-09-18T16:22:42;14.30;60.60
46123;DHT22;31856;-35.404;149.120;2023-09-18T16:25:15;14.30;60.40
46123;DHT22;31856;-35.404;149.120;2023-09-18T16:27:45;14.30;60.80
46123;DHT22;31856;-35.404;149.120;2023-09-18T16:30:14;14.30;60.50
46123;DHT22;31856;-35.404;149.120;2023-09-18T16:32:44;14.30;59.90
46123;DHT22;31856;-35.404;149.120;2023-09-18T16:35:14;14.30;59.80
46123;DHT22;31856;-35.404;149.120;2023-09-18T16:37:44;14.30;60.20
46123;DHT22;31856;-35.404;149.120;2023-09-18T16:40:15;14.20;60.60
46123;DHT22;31856;-35.404;149.120;2023-09-18T16:42:45;14.20;61.10
46123;DHT22;31856;-35.404;149.120;2023-09-18T16:45:15;14.10;61.50
46123;DHT22;31856;-35.404;149.120;2023-09-18T16:47:44;14.10;61.70
46123;DHT22;31856;-35.404;149.120;2023-09-18T16:50:14;14.00;62.30
46123;DHT22;31856;-35.404;149.120;2023-09-18T16:52:44;13.90;62.20
46123;DHT22;31856;-35.404;149.120;2023-09-18T16:55:16;13.90;62.20
46123;DHT22;31856;-35.404;149.120;2023-09-18T16:57:45;13.90;62.00
46123;DHT22;31856;-35.404;149.120;2023-09-18T17:00:15;13.80;62.00
46123;DHT22;31856;-35.404;149.120;2023-09-18T17:02:47;13.80;62.30
46123;DHT22;31856;-35.404;149.120;2023-09-18T17:05:17;13.80;62.10
46123;DHT22;31856;-35.404;149.120;2023-09-18T17:07:46;13.80;61.70
46123;DHT22;31856;-35.404;149.120;2023-09-18T17:10:18;13.80;61.30
46123;DHT22;31856;-35.404;149.120;2023-09-18T17:12:47;13.80;60.20
46123;DHT22;31856;-35.404;149.120;2023-09-18T17:15:17;13.80;60.10
46123;DHT22;31856;-35.404;149.120;2023-09-18T17:17:49;13.90;59.60
46123;DHT22;31856;-35.404;149.120;2023-09-18T17:20:22;13.80;60.10
46123;DHT22;31856;-35.404;149.120;2023-09-18T17:22:52;13.80;60.30
46123;DHT22;31856;-35.404;149.120;2023-09-18T17:25:23;13.80;60.60
46123;DHT22;31856;-35.404;149.120;2023-09-18T17:27:53;13.80;61.10
46123;DHT22;31856;-35.404;149.120;2023-09-18T17:30:24;13.70;61.30
46123;DHT22;31856;-35.404;149.120;2023-09-18T17:32:55;13.70;61.00
46123;DHT22;31856;-35.404;149.120;2023-09-18T17:35:25;13.70;61.00
46123;DHT22;31856;-35.404;149.120;2023-09-18T17:37:54;13.70;60.50
46123;DHT22;31856;-35.404;149.120;2023-09-18T17:40:24;13.80;60.30
46123;DHT22;31856;-35.404;149.120;2023-09-18T17:42:54;13.70;59.90
46123;DHT22;31856;-35.404;149.120;2023-09-18T17:45:25;13.80;59.60
46123;DHT22;31856;-35.404;149.120;2023-09-18T17:47:54;13.80;59.40
46123;DHT22;31856;-35.404;149.120;2023-09-18T17:50:24;13.80;58.90
46123;DHT22;31856;-35.404;149.120;2023-09-18T17:52:55;13.80;58.80
46123;DHT22;31856;-35.404;149.120;2023-09-18T17:55:24;13.80;58.60
46123;DHT22;31856;-35.404;149.120;2023-09-18T17:57:53;13.80;58.50
46123;DHT22;31856;-35.404;149.120;2023-09-18T18:00:25;13.80;58.30
46123;DHT22;31856;-35.404;149.120;2023-09-18T18:02:57;13.90;58.10
46123;DHT22;31856;-35.404;149.120;2023-09-18T18:05:27;13.80;58.40
46123;DHT22;31856;-35.404;149.120;2023-09-18T18:07:57;13.80;58.40
46123;DHT22;31856;-35.404;149.120;2023-09-18T18:10:27;13.90;58.00
46123;DHT22;31856;-35.404;149.120;2023-09-18T18:12:57;13.90;58.10
46123;DHT22;31856;-35.404;149.120;2023-09-18T18:15:26;13.90;58.70
46123;DHT22;31856;-35.404;149.120;2023-09-18T18:17:56;13.90;59.70
46123;DHT22;31856;-35.404;149.120;2023-09-18T18:20:27;13.80;60.40
46123;DHT22;31856;-35.404;149.120;2023-09-18T18:22:56;13.80;60.70
46123;DHT22;31856;-35.404;149.120;2023-09-18T18:25:27;13.80;60.70
46123;DHT22;31856;-35.404;149.120;2023-09-18T18:27:57;13.80;60.70
46123;DHT22;31856;-35.404;149.120;2023-09-18T18:30:26;13.70;61.00
46123;DHT22;31856;-35.404;149.120;2023-09-18T18:32:56;13.70;60.70
46123;DHT22;31856;-35.404;149.120;2023-09-18T18:35:25;13.70;60.50
46123;DHT22;31856;-35.404;149.120;2023-09-18T18:37:55;13.70;60.00
46123;DHT22;31856;-35.404;149.120;2023-09-18T18:40:24;13.70;59.80
46123;DHT22;31856;-35.404;149.120;2023-09-18T18:42:54;13.70;59.30
46123;DHT22;31856;-35.404;149.120;2023-09-18T18:45:25;13.70;58.50
46123;DHT22;31856;-35.404;149.120;2023-09-18T18:47:56;13.80;57.80
46123;DHT22;31856;-35.404;149.120;2023-09-18T18:50:27;13.90;57.00
46123;DHT22;31856;-35.404;149.120;2023-09-18T18:53:00;14.00;56.60
46123;DHT22;31856;-35.404;149.120;2023-09-18T18:55:30;14.10;56.10
46123;DHT22;31856;-35.404;149.120;2023-09-18T18:58:00;14.10;55.60
46123;DHT22;31856;-35.404;149.120;2023-09-18T19:00:30;14.20;55.70
46123;DHT22;31856;-35.404;149.120;2023-09-18T19:03:01;14.20;55.40
46123;DHT22;31856;-35.404;149.120;2023-09-18T19:05:33;14.20;55.20
46123;DHT22;31856;-35.404;149.120;2023-09-18T19:08:04;14.20;55.30
46123;DHT22;31856;-35.404;149.120;2023-09-18T19:10:34;14.20;58.00
46123;DHT22;31856;-35.404;149.120;2023-09-18T19:13:07;14.00;60.00
46123;DHT22;31856;-35.404;149.120;2023-09-18T19:15:38;14.00;61.10
46123;DHT22;31856;-35.404;149.120;2023-09-18T19:18:07;13.80;61.50
46123;DHT22;31856;-35.404;149.120;2023-09-18T19:20:37;13.80;61.10
46123;DHT22;31856;-35.404;149.120;2023-09-18T19:23:07;13.70;61.80
46123;DHT22;31856;-35.404;149.120;2023-09-18T19:25:47;13.80;61.70
46123;DHT22;31856;-35.404;149.120;2023-09-18T19:28:17;13.70;61.40
46123;DHT22;31856;-35.404;149.120;2023-09-18T19:30:48;13.70;61.60
46123;DHT22;31856;-35.404;149.120;2023-09-18T19:33:21;13.60;62.20
46123;DHT22;31856;-35.404;149.120;2023-09-18T19:35:52;13.50;61.90
46123;DHT22;31856;-35.404;149.120;2023-09-18T19:38:23;13.50;62.10
46123;DHT22;31856;-35.404;149.120;2023-09-18T19:40:53;13.50;62.00
46123;DHT22;31856;-35.404;149.120;2023-09-18T19:43:22;13.40;61.50
46123;DHT22;31856;-35.404;149.120;2023-09-18T19:45:52;13.50;61.20
46123;DHT22;31856;-35.404;149.120;2023-09-18T19:48:21;13.40;61.80
46123;DHT22;31856;-35.404;149.120;2023-09-18T19:50:51;13.40;61.40
46123;DHT22;31856;-35.404;149.120;2023-09-18T19:53:27;13.30;61.10
46123;DHT22;31856;-35.404;149.120;2023-09-18T19:55:58;13.30;61.20
46123;DHT22;31856;-35.404;149.120;2023-09-18T19:58:27;13.30;61.60
46123;DHT22;31856;-35.404;149.120;2023-09-18T20:00:58;13.30;61.00
46123;DHT22;31856;-35.404;149.120;2023-09-18T20:03:28;13.30;60.60
46123;DHT22;31856;-35.404;149.120;2023-09-18T20:05:58;13.30;60.50
46123;DHT22;31856;-35.404;149.120;2023-09-18T20:08:35;13.30;60.50
46123;DHT22;31856;-35.404;149.120;2023-09-18T20:11:05;13.30;60.10
46123;DHT22;31856;-35.404;149.120;2023-09-18T20:13:35;13.30;60.00
46123;DHT22;31856;-35.404;149.120;2023-09-18T20:16:04;13.30;59.80
46123;DHT22;31856;-35.404;149.120;2023-09-18T20:18:35;13.40;59.50
46123;DHT22;31856;-35.404;149.120;2023-09-18T20:21:05;13.40;58.90
46123;DHT22;31856;-35.404;149.120;2023-09-18T20:23:37;13.50;58.30
46123;DHT22;31856;-35.404;149.120;2023-09-18T20:26:07;13.60;57.10
46123;DHT22;31856;-35.404;149.120;2023-09-18T20:28:37;13.70;56.20
46123;DHT22;31856;-35.404;149.120;2023-09-18T20:31:07;13.80;54.90
46123;DHT22;31856;-35.404;149.120;2023-09-18T20:33:36;13.90;53.80
46123;DHT22;31856;-35.404;149.120;2023-09-18T20:36:06;14.10;53.90
46123;DHT22;31856;-35.404;149.120;2023-09-18T20:38:36;14.20;52.60
46123;DHT22;31856;-35.404;149.120;2023-09-18T20:41:07;14.30;52.60
46123;DHT22;31856;-35.404;149.120;2023-09-18T20:43:36;14.40;52.30
46123;DHT22;31856;-35.404;149.120;2023-09-18T20:46:12;14.50;51.90
46123;DHT22;31856;-35.404;149.120;2023-09-18T20:48:41;14.60;51.70
46123;DHT22;31856;-35.404;149.120;2023-09-18T20:51:11;14.70;51.30
46123;DHT22;31856;-35.404;149.120;2023-09-18T20:53:41;14.80;50.80
46123;DHT22;31856;-35.404;149.120;2023-09-18T20:56:10;14.90;51.40
46123;DHT22;31856;-35.404;149.120;2023-09-18T20:58:39;14.90;51.10
46123;DHT22;31856;-35.404;149.120;2023-09-18T21:01:09;15.00;50.70
46123;DHT22;31856;-35.404;149.120;2023-09-18T21:03:39;15.00;50.40
46123;DHT22;31856;-35.404;149.120;2023-09-18T21:06:11;15.20;51.10
46123;DHT22;31856;-35.404;149.120;2023-09-18T21:08:41;15.20;50.50
46123;DHT22;31856;-35.404;149.120;2023-09-18T21:11:12;15.30;50.00
46123;DHT22;31856;-35.404;149.120;2023-09-18T21:13:43;15.50;50.10
46123;DHT22;31856;-35.404;149.120;2023-09-18T21:16:17;15.60;49.40
46123;DHT22;31856;-35.404;149.120;2023-09-18T21:18:46;15.70;49.30
46123;DHT22;31856;-35.404;149.120;2023-09-18T21:21:16;15.80;48.70
46123;DHT22;31856;-35.404;149.120;2023-09-18T21:23:45;15.80;48.80
46123;DHT22;31856;-35.404;149.120;2023-09-18T21:26:15;15.90;48.30
46123;DHT22;31856;-35.404;149.120;2023-09-18T21:28:45;16.00;47.90
46123;DHT22;31856;-35.404;149.120;2023-09-18T21:31:14;16.10;48.10
46123;DHT22;31856;-35.404;149.120;2023-09-18T21:33:48;16.10;48.20
46123;DHT22;31856;-35.404;149.120;2023-09-18T21:36:22;16.20;48.00
46123;DHT22;31856;-35.404;149.120;2023-09-18T21:38:55;16.30;47.70
46123;DHT22;31856;-35.404;149.120;2023-09-18T21:41:24;16.30;47.40
46123;DHT22;31856;-35.404;149.120;2023-09-18T21:43:54;16.30;47.30
46123;DHT22;31856;-35.404;149.120;2023-09-18T21:46:23;16.40;47.70
46123;DHT22;31856;-35.404;149.120;2023-09-18T21:48:53;16.40;47.80
46123;DHT22;31856;-35.404;149.120;2023-09-18T21:51:22;16.50;48.00
46123;DHT22;31856;-35.404;149.120;2023-09-18T21:53:52;16.60;48.10
46123;DHT22;31856;-35.404;149.120;2023-09-18T21:56:22;16.70;48.20
46123;DHT22;31856;-35.404;149.120;2023-09-18T21:58:51;16.80;48.70
46123;DHT22;31856;-35.404;149.120;2023-09-18T22:01:21;16.90;48.80
46123;DHT22;31856;-35.404;149.120;2023-09-18T22:03:51;17.00;48.10
46123;DHT22;31856;-35.404;149.120;2023-09-18T22:06:21;17.10;48.00
46123;DHT22;31856;-35.404;149.120;2023-09-18T22:08:51;17.30;47.50
46123;DHT22;31856;-35.404;149.120;2023-09-18T22:11:22;17.30;47.50
46123;DHT22;31856;-35.404;149.120;2023-09-18T22:13:51;17.50;47.60
46123;DHT22;31856;-35.404;149.120;2023-09-18T22:16:21;17.50;49.00
46123;DHT22;31856;-35.404;149.120;2023-09-18T22:18:51;17.60;48.10
46123;DHT22;31856;-35.404;149.120;2023-09-18T22:21:20;17.70;47.90
46123;DHT22;31856;-35.404;149.120;2023-09-18T22:23:51;17.80;46.20
46123;DHT22;31856;-35.404;149.120;2023-09-18T22:26:20;18.00;45.80
46123;DHT22;31856;-35.404;149.120;2023-09-18T22:28:50;18.10;45.10
46123;DHT22;31856;-35.404;149.120;2023-09-18T22:31:19;18.30;44.30
46123;DHT22;31856;-35.404;149.120;2023-09-18T22:33:49;18.40;44.00
46123;DHT22;31856;-35.404;149.120;2023-09-18T22:36:19;18.60;43.20
46123;DHT22;31856;-35.404;149.120;2023-09-18T22:38:58;18.80;43.10
46123;DHT22;31856;-35.404;149.120;2023-09-18T22:55:10;19.50;41.10
46123;DHT22;31856;-35.404;149.120;2023-09-18T22:57:56;19.60;41.20
46123;DHT22;31856;-35.404;149.120;2023-09-18T23:00:27;19.70;41.20
46123;DHT22;31856;-35.404;149.120;2023-09-18T23:03:03;19.80;41.00
46123;DHT22;31856;-35.404;149.120;2023-09-18T23:05:33;20.00;40.20
46123;DHT22;31856;-35.404;149.120;2023-09-18T23:08:06;20.20;40.70
46123;DHT22;31856;-35.404;149.120;2023-09-18T23:10:37;20.30;40.30
46123;DHT22;31856;-35.404;149.120;2023-09-18T23:13:06;20.30;39.80
46123;DHT22;31856;-35.404;149.120;2023-09-18T23:15:39;20.50;39.90
46123;DHT22;31856;-35.404;149.120;2023-09-18T23:18:10;20.60;40.00
46123;DHT22;31856;-35.404;149.120;2023-09-18T23:20:40;20.70;39.50
46123;DHT22;31856;-35.404;149.120;2023-09-18T23:23:09;20.90;39.40
46123;DHT22;31856;-35.404;149.120;2023-09-18T23:25:40;21.10;39.50
46123;DHT22;31856;-35.404;149.120;2023-09-18T23:28:11;21.20;39.10
46123;DHT22;31856;-35.404;149.120;2023-09-18T23:30:41;21.30;38.50
46123;DHT22;31856;-35.404;149.120;2023-09-18T23:33:12;21.30;38.10
46123;DHT22;31856;-35.404;149.120;2023-09-18T23:35:43;21.50;37.10
46123;DHT22;31856;-35.404;149.120;2023-09-18T23:38:13;21.70;37.30
46123;DHT22;31856;-35.404;149.120;2023-09-18T23:40:45;21.80;37.10
46123;DHT22;31856;-35.404;149.120;2023-09-18T23:43:15;22.00;36.50
46123;DHT22;31856;-35.404;149.120;2023-09-18T23:45:45;22.00;36.60
46123;DHT22;31856;-35.404;149.120;2023-09-18T23:48:15;22.10;36.90
46123;DHT22;31856;-35.404;149.120;2023-09-18T23:50:47;22.20;36.90
46123;DHT22;31856;-35.404;149.120;2023-09-18T23:53:23;22.30;36.20
46123;DHT22;31856;-35.404;149.120;2023-09-18T23:55:53;22.40;36.10
46123;DHT22;31856;-35.404;149.120;2023-09-18T23:58:26;22.50;35.60
